Aeroporto :
LOGIN :

Iscrizione | Disclaimer

   EN    FR    IT 

 










Sommario :    VFR   VFR Marginale   IFR   IFR Intensivo   IFR Molto Intensivo
Visibilità : 
Base nubi : 
>= 8 km
>= 3000ft
5 / 8 km
1000 / 3000 ft
1500m / 5 km
500 / 1000 ft
800 / 1500m
200 / 500 ft
< 800m
< 200 ft
Simboli :   Temporali  Nebbia  Neve Forte  Precipitazioni Forti  Vento > 20 kt
SIGMETs :   Varie  Temporali  Ghiacco  Turbolenza  Onda orograficha  Ceneri Vulcaniche






- Altitudine del aeroporto : 370 ft


EBBE - Beauvechain AB

ULTIMO METAR :
  • 072225Z AUTO 21012KT 9999 OVC035/// 09/05 Q1014 BLU

METARs OBSOLETI :
  • 072155Z AUTO 21013KT 9999 OVC034/// 09/05 Q1014 BLU
  • 072125Z AUTO 22012KT 9999 BKN033/// 09/05 Q1014 BLU
  • 072055Z AUTO 22010KT 9999 BKN033/// OVC039/// 09/05 Q1015 BLU
  • 072025Z AUTO 22012KT 9999 BKN035/// 09/05 Q1015 BLU
  • 071955Z AUTO 21011KT 9999 FEW025/// SCT031/// OVC037/// 09/06 Q1015 BLU

Previsioni scadute.



MetMap, La meteo Aeronautica in un colpo d'occhio ! - Copyright ORBIFLY Dicembre 2007 - Disclaimer

ORBIFLY MET'MAP TEAM :

Programmazione e sviluppo : Alexandra Zaïnal
Concezione : Baudouin d'Aumeries
Aiuto per la programmazione : Marc-Olivier Méhu
Supporto tecnico e logistico : Manuel Goepfert
Aiuto per la traduzione : Arnaldo La Scala

Contatto : metmap@orbifly.com




FONTI E CREDITI :

   NOAA